createdAt,value
2018-02-08T00:01:26.704Z,27.87
2018-02-08T00:03:55.032Z,28.07
2018-02-08T00:06:23.338Z,26.83
2018-02-08T00:08:51.651Z,25.23
2018-02-08T00:11:19.894Z,27.80
2018-02-08T00:13:48.179Z,27.47
2018-02-08T00:16:16.459Z,28.27
2018-02-08T00:18:44.735Z,26.77
2018-02-08T00:21:13.013Z,27.27
2018-02-08T00:23:41.315Z,27.65
2018-02-08T00:26:09.642Z,28.05
2018-02-08T00:28:37.924Z,26.77
2018-02-08T00:31:06.202Z,26.97
2018-02-08T00:33:34.498Z,26.53
2018-02-08T00:36:02.768Z,27.07
2018-02-08T00:38:31.081Z,26.63
2018-02-08T00:40:59.404Z,27.73
2018-02-08T00:43:27.686Z,25.97
2018-02-08T00:45:55.988Z,27.90
2018-02-08T00:48:24.265Z,27.60
2018-02-08T00:50:52.576Z,28.50
2018-02-08T00:53:21.102Z,29.33
2018-02-08T00:55:49.420Z,28.17
2018-02-08T00:58:17.719Z,26.63
2018-02-08T01:00:46.027Z,28.77
2018-02-08T01:03:14.345Z,26.87
2018-02-08T01:05:42.601Z,29.03
2018-02-08T01:08:10.905Z,27.10
2018-02-08T01:10:39.176Z,28.23
2018-02-08T01:13:07.508Z,28.30
2018-02-08T01:15:36.404Z,28.73
2018-02-08T01:18:05.694Z,28.65
2018-02-08T01:20:33.979Z,28.10
2018-02-08T01:23:02.267Z,29.07
2018-02-08T01:25:30.561Z,28.40
2018-02-08T01:27:58.874Z,27.87
2018-02-08T01:30:27.151Z,28.70
2018-02-08T01:32:55.452Z,27.80
2018-02-08T01:35:23.736Z,29.23
2018-02-08T01:37:52.018Z,26.80
2018-02-08T01:40:20.384Z,29.07
2018-02-08T01:42:48.657Z,27.80
2018-02-08T01:45:16.957Z,28.38
2018-02-08T01:47:45.231Z,29.03
2018-02-08T01:50:13.539Z,29.17
2018-02-08T01:52:41.810Z,28.47
2018-02-08T01:55:10.122Z,28.48
2018-02-08T01:57:38.427Z,30.63
2018-02-08T02:00:06.751Z,29.37
2018-02-08T02:02:34.999Z,29.60
2018-02-08T02:05:04.316Z,27.70
2018-02-08T02:07:32.639Z,29.40
2018-02-08T02:10:00.924Z,29.00
2018-02-08T02:12:29.235Z,29.30
2018-02-08T02:14:57.505Z,28.80
2018-02-08T02:17:25.800Z,30.92
2018-02-08T02:19:54.083Z,29.17
2018-02-08T02:22:22.434Z,29.00
2018-02-08T02:24:50.728Z,28.50
2018-02-08T02:27:19.038Z,30.88
2018-02-08T02:29:47.334Z,31.00
2018-02-08T02:32:15.654Z,29.70
2018-02-08T02:34:43.967Z,29.80
2018-02-08T02:37:12.293Z,29.30
2018-02-08T02:39:41.144Z,30.33
2018-02-08T02:42:09.445Z,29.60
2018-02-08T02:44:37.744Z,29.90
2018-02-08T02:47:06.020Z,31.70
2018-02-08T02:49:34.354Z,30.93
2018-02-08T02:52:02.630Z,30.10
2018-02-08T02:54:30.927Z,30.23
2018-02-08T02:56:59.211Z,30.95
2018-02-08T02:59:27.526Z,29.03
2018-02-08T03:01:55.791Z,31.27
2018-02-08T03:04:24.148Z,31.60
2018-02-08T03:06:52.414Z,31.23
2018-02-08T03:09:21.587Z,30.20
2018-02-08T03:11:49.883Z,30.57
2018-02-08T03:14:18.170Z,30.80
2018-02-08T03:16:46.472Z,31.00
2018-02-08T03:19:15.542Z,30.00
2018-02-08T03:21:44.127Z,30.83
2018-02-08T03:24:12.403Z,30.15
2018-02-08T03:26:41.206Z,29.30
2018-02-08T03:29:09.470Z,32.07
2018-02-08T03:31:38.584Z,30.17
2018-02-08T03:34:07.160Z,29.97
2018-02-08T03:36:35.479Z,28.37
2018-02-08T03:39:03.823Z,30.10
2018-02-08T03:41:32.162Z,29.20
2018-02-08T03:44:00.447Z,29.10
2018-02-08T03:46:28.763Z,29.23
2018-02-08T03:48:57.011Z,28.93
2018-02-08T03:51:25.352Z,31.00
2018-02-08T03:53:53.595Z,29.97
2018-02-08T03:56:21.860Z,29.90
2018-02-08T03:58:50.199Z,28.90
2018-02-08T04:01:18.488Z,28.60
2018-02-08T04:03:46.795Z,29.70
2018-02-08T04:06:15.044Z,30.10
2018-02-08T04:08:43.363Z,30.70
2018-02-08T04:11:11.645Z,29.87
2018-02-08T04:13:39.963Z,27.37
2018-02-08T04:16:08.243Z,29.10
2018-02-08T04:18:37.231Z,28.10
2018-02-08T04:21:05.522Z,29.70
2018-02-08T04:23:33.803Z,29.77
2018-02-08T04:26:02.091Z,30.03
2018-02-08T04:28:30.367Z,29.25
2018-02-08T04:30:58.679Z,28.83
2018-02-08T04:33:26.980Z,29.00
2018-02-08T04:35:55.267Z,28.23
2018-02-08T04:38:35.307Z,29.80
2018-02-08T04:41:15.270Z,28.77
2018-02-08T04:43:55.285Z,28.87
2018-02-08T04:46:35.380Z,29.10
2018-02-08T04:49:03.651Z,30.90
2018-02-08T04:51:31.936Z,28.40
2018-02-08T04:54:00.579Z,29.07
2018-02-08T04:56:28.902Z,29.10
2018-02-08T04:58:57.195Z,27.50
2018-02-08T05:01:25.518Z,30.45
2018-02-08T05:03:53.820Z,29.57
2018-02-08T05:06:22.096Z,29.37
2018-02-08T05:08:50.401Z,28.40
2018-02-08T05:11:18.656Z,29.42
2018-02-08T05:13:46.950Z,29.20
2018-02-08T05:16:15.205Z,29.07
2018-02-08T05:18:43.512Z,27.40
2018-02-08T05:21:11.780Z,28.00
2018-02-08T05:23:40.110Z,28.03
2018-02-08T05:26:08.395Z,28.10
2018-02-08T05:28:36.694Z,28.87
2018-02-08T05:31:05.274Z,28.27
2018-02-08T05:33:33.566Z,30.97
2018-02-08T05:36:01.872Z,27.40
2018-02-08T05:38:30.158Z,27.10
2018-02-08T05:40:58.481Z,28.60
2018-02-08T05:43:26.763Z,27.97
2018-02-08T05:45:55.064Z,28.53
2018-02-08T05:48:23.341Z,28.73
2018-02-08T05:50:51.659Z,28.17
2018-02-08T05:53:19.950Z,28.23
2018-02-08T05:55:48.240Z,26.80
2018-02-08T05:58:16.548Z,28.02
2018-02-08T06:00:44.840Z,28.63
2018-02-08T06:03:13.164Z,26.62
2018-02-08T06:05:41.448Z,27.80
2018-02-08T06:08:09.812Z,28.70
2018-02-08T06:10:38.109Z,30.00
2018-02-08T06:13:06.396Z,27.77
2018-02-08T06:15:34.697Z,27.20
2018-02-08T06:18:03.005Z,27.50
2018-02-08T06:20:31.302Z,28.10
2018-02-08T06:22:59.609Z,26.77
2018-02-08T06:25:27.878Z,28.63
2018-02-08T06:27:56.160Z,28.33
2018-02-08T06:30:24.479Z,28.10
2018-02-08T06:32:52.816Z,27.87
2018-02-08T06:35:21.118Z,26.73
2018-02-08T06:37:49.431Z,28.60
2018-02-08T06:40:17.725Z,29.20
2018-02-08T06:42:45.998Z,27.97
2018-02-08T06:45:14.369Z,28.33
2018-02-08T06:47:43.555Z,28.00
2018-02-08T06:50:11.857Z,27.47
2018-02-08T06:52:40.123Z,28.57
2018-02-08T06:55:08.430Z,29.53
2018-02-08T06:57:36.772Z,27.93
2018-02-08T07:00:05.245Z,30.52
2018-02-08T07:02:33.583Z,29.77
2018-02-08T07:05:01.915Z,27.63
2018-02-08T07:07:30.263Z,29.27
2018-02-08T07:09:58.576Z,28.33
2018-02-08T07:12:26.927Z,28.30
2018-02-08T07:14:55.238Z,31.17
2018-02-08T07:17:23.567Z,29.83
2018-02-08T07:19:51.859Z,28.47
2018-02-08T07:22:20.173Z,29.67
2018-02-08T07:24:48.461Z,26.43
2018-02-08T07:27:16.779Z,27.58
2018-02-08T07:29:45.065Z,29.00
2018-02-08T07:32:13.513Z,29.50
2018-02-08T07:34:41.765Z,26.93
2018-02-08T07:37:10.088Z,26.90
2018-02-08T07:39:37.712Z,26.57
2018-02-08T07:42:05.831Z,28.30
2018-02-08T07:44:34.143Z,29.67
2018-02-08T07:47:02.447Z,27.87
2018-02-08T07:49:30.933Z,30.30
2018-02-08T07:51:59.643Z,28.30
2018-02-08T07:54:27.969Z,29.03
2018-02-08T07:56:56.266Z,29.00
2018-02-08T07:59:24.647Z,28.60
2018-02-08T08:01:52.900Z,27.67
2018-02-08T08:04:21.243Z,31.90
2018-02-08T08:06:49.566Z,28.50
2018-02-08T08:09:18.073Z,28.20
2018-02-08T08:11:46.362Z,27.80
2018-02-08T08:14:14.714Z,28.80
2018-02-08T08:16:43.034Z,30.43
2018-02-08T08:19:11.324Z,30.13
2018-02-08T08:21:39.624Z,30.13
2018-02-08T08:24:07.902Z,28.37
2018-02-08T08:26:36.202Z,29.17
2018-02-08T08:29:04.510Z,29.77
2018-02-08T08:31:32.795Z,28.90
2018-02-08T08:34:01.086Z,29.95
2018-02-08T08:36:30.189Z,28.27
2018-02-08T08:38:58.566Z,28.40
2018-02-08T08:41:26.843Z,27.98
2018-02-08T08:43:55.181Z,29.90
2018-02-08T08:46:23.497Z,29.27
2018-02-08T08:48:51.883Z,28.67
2018-02-08T08:51:20.259Z,42.30
2018-02-08T08:53:49.691Z,29.17
2018-02-08T08:56:19.575Z,30.40
2018-02-08T08:58:47.928Z,28.87
2018-02-08T09:01:16.307Z,28.58
2018-02-08T09:03:44.684Z,29.20
2018-02-08T09:06:12.976Z,29.80
2018-02-08T09:08:41.341Z,29.83
2018-02-08T09:11:09.613Z,31.20
2018-02-08T09:13:37.898Z,33.70
2018-02-08T09:16:06.190Z,30.43
2018-02-08T09:18:34.584Z,30.30
2018-02-08T09:21:02.925Z,29.10
2018-02-08T09:23:31.300Z,30.20
2018-02-08T09:25:59.613Z,30.90
2018-02-08T09:28:27.896Z,29.77
2018-02-08T09:30:56.236Z,32.47
2018-02-08T09:33:24.515Z,31.87
2018-02-08T09:35:52.906Z,33.13
2018-02-08T09:38:21.181Z,35.93
2018-02-08T09:40:50.119Z,28.73
2018-02-08T09:43:18.437Z,30.23
2018-02-08T09:45:46.748Z,29.87
2018-02-08T09:48:15.394Z,29.23
2018-02-08T09:50:43.721Z,30.23
2018-02-08T09:53:11.991Z,30.53
2018-02-08T09:55:40.342Z,28.67
2018-02-08T09:58:08.617Z,30.40
2018-02-08T10:00:36.939Z,31.23
2018-02-08T10:03:05.870Z,31.57
2018-02-08T10:05:34.498Z,32.23
2018-02-08T10:08:02.830Z,31.00
2018-02-08T10:10:31.108Z,33.00
2018-02-08T10:13:00.109Z,34.10
2018-02-08T10:15:28.737Z,31.42
2018-02-08T10:17:57.090Z,33.17
2018-02-08T10:20:25.394Z,31.73
2018-02-08T10:22:53.802Z,30.70
2018-02-08T10:25:22.100Z,30.73
2018-02-08T10:27:50.473Z,31.03
2018-02-08T10:30:18.906Z,30.30
2018-02-08T10:32:47.979Z,29.33
2018-02-08T10:35:16.266Z,30.62
2018-02-08T10:37:44.528Z,31.17
2018-02-08T10:40:12.902Z,29.93
2018-02-08T10:42:41.195Z,30.67
2018-02-08T10:45:09.559Z,31.45
2018-02-08T10:47:37.925Z,33.17
2018-02-08T10:50:07.121Z,31.73
2018-02-08T10:52:35.439Z,35.20
2018-02-08T10:55:04.729Z,32.70
2018-02-08T10:57:32.988Z,32.03
2018-02-08T11:00:01.368Z,31.50
2018-02-08T11:02:29.648Z,32.75
2018-02-08T11:04:57.999Z,31.40
2018-02-08T11:07:26.289Z,31.90
2018-02-08T11:09:54.628Z,32.13
2018-02-08T11:12:23.072Z,28.23
2018-02-08T11:14:52.130Z,31.17
2018-02-08T11:17:20.440Z,31.47
2018-02-08T11:19:48.785Z,31.60
2018-02-08T11:22:17.136Z,29.08
2018-02-08T11:24:45.444Z,30.87
2018-02-08T11:27:16.090Z,32.17
2018-02-08T11:29:44.380Z,31.87
2018-02-08T11:32:12.726Z,30.60
2018-02-08T11:34:41.048Z,31.57
2018-02-08T11:37:10.803Z,28.80
2018-02-08T11:39:39.270Z,30.13
2018-02-08T11:42:07.608Z,30.80
2018-02-08T11:44:35.998Z,33.10
2018-02-08T11:47:05.711Z,33.20
2018-02-08T11:49:34.071Z,31.40
2018-02-08T11:52:02.354Z,31.40
2018-02-08T11:54:30.672Z,30.80
2018-02-08T11:56:58.966Z,32.60
2018-02-08T11:59:27.275Z,29.70
2018-02-08T12:01:55.544Z,32.40
2018-02-08T12:04:23.997Z,33.90
2018-02-08T12:06:52.297Z,31.87
2018-02-08T12:09:21.549Z,31.20
2018-02-08T12:11:49.869Z,31.30
2018-02-08T12:14:18.226Z,32.22
2018-02-08T12:16:46.479Z,32.40
2018-02-08T12:19:14.797Z,31.67
2018-02-08T12:21:43.218Z,32.08
2018-02-08T12:24:11.566Z,31.30
2018-02-08T12:26:39.893Z,31.13
2018-02-08T12:29:09.090Z,31.00
2018-02-08T12:31:37.421Z,32.17
2018-02-08T12:34:05.701Z,31.07
2018-02-08T12:36:34.042Z,32.90
2018-02-08T12:39:02.423Z,31.50
2018-02-08T12:41:30.743Z,32.20
2018-02-08T12:43:59.051Z,30.60
2018-02-08T12:46:27.382Z,32.60
2018-02-08T12:48:55.709Z,31.75
2018-02-08T12:51:24.928Z,32.93
2018-02-08T12:53:53.264Z,32.10
2018-02-08T12:56:21.563Z,31.03
2018-02-08T12:58:51.008Z,31.37
2018-02-08T13:01:19.344Z,31.85
2018-02-08T13:03:47.618Z,33.10
2018-02-08T13:06:15.968Z,32.70
2018-02-08T13:08:44.273Z,31.50
2018-02-08T13:11:13.399Z,31.40
2018-02-08T13:13:41.816Z,30.90
2018-02-08T13:16:10.092Z,30.98
2018-02-08T13:18:38.401Z,31.37
2018-02-08T13:21:06.733Z,29.57
2018-02-08T13:23:35.032Z,31.47
2018-02-08T13:26:03.384Z,32.70
2018-02-08T13:28:31.903Z,32.93
2018-02-08T13:31:01.941Z,33.55
2018-02-08T13:33:30.233Z,29.80
2018-02-08T13:35:58.648Z,32.13
2018-02-08T13:38:26.916Z,31.57
2018-02-08T13:40:55.211Z,32.10
2018-02-08T13:43:23.542Z,29.73
2018-02-08T13:45:52.200Z,30.43
2018-02-08T13:48:23.895Z,31.77
2018-02-08T13:50:57.743Z,31.80
2018-02-08T13:53:40.787Z,30.13
2018-02-08T13:56:09.167Z,32.83
2018-02-08T13:58:43.000Z,30.97
2018-02-08T14:01:13.642Z,29.92
2018-02-08T14:03:42.120Z,30.20
2018-02-08T14:06:10.391Z,32.37
2018-02-08T14:08:38.794Z,33.90
2018-02-08T14:11:07.061Z,31.97
2018-02-08T14:13:35.434Z,30.83
2018-02-08T14:16:04.276Z,32.58
2018-02-08T14:18:33.592Z,31.80
2018-02-08T14:21:01.932Z,31.92
2018-02-08T14:23:30.267Z,30.60
2018-02-08T14:25:58.739Z,31.00
2018-02-08T14:28:27.023Z,31.90
2018-02-08T14:30:55.493Z,29.03
2018-02-08T14:33:23.864Z,29.50
2018-02-08T14:35:52.171Z,33.30
2018-02-08T14:38:20.643Z,31.05
2018-02-08T14:40:48.938Z,31.57
2018-02-08T14:43:17.278Z,30.05
2018-02-08T14:45:45.592Z,29.80
2018-02-08T14:48:13.925Z,31.53
2018-02-08T14:50:42.226Z,30.53
2018-02-08T14:53:10.604Z,31.05
2018-02-08T14:55:39.013Z,30.60
2018-02-08T14:58:08.075Z,33.17
2018-02-08T15:00:36.364Z,28.00
2018-02-08T15:03:04.974Z,32.55
2018-02-08T15:05:33.293Z,31.27
2018-02-08T15:08:01.728Z,30.33
2018-02-08T15:10:30.159Z,28.17
2018-02-08T15:12:58.630Z,30.60
2018-02-08T15:15:26.982Z,29.70
2018-02-08T15:17:56.234Z,30.75
2018-02-08T15:20:24.627Z,32.10
2018-02-08T15:22:52.965Z,30.67
2018-02-08T15:25:21.316Z,31.27
2018-02-08T15:27:49.722Z,31.23
2018-02-08T15:30:18.031Z,29.47
2018-02-08T15:32:46.306Z,30.55
2018-02-08T15:35:14.680Z,33.80
2018-02-08T15:37:42.913Z,31.43
2018-02-08T15:40:11.201Z,30.77
2018-02-08T15:42:39.663Z,30.70
2018-02-08T15:45:10.807Z,30.63
2018-02-08T15:47:39.127Z,30.90
2018-02-08T15:50:07.580Z,32.23
2018-02-08T15:52:35.896Z,36.60
2018-02-08T15:55:04.215Z,32.50
2018-02-08T15:57:32.581Z,29.87
2018-02-08T16:00:00.890Z,28.50
2018-02-08T16:02:29.223Z,31.87
2018-02-08T16:04:57.504Z,30.93
2018-02-08T16:07:26.622Z,30.83
2018-02-08T16:09:54.964Z,31.40
2018-02-08T16:12:23.260Z,31.03
2018-02-08T16:14:51.714Z,31.20
2018-02-08T16:17:20.085Z,30.17
2018-02-08T16:19:50.034Z,31.87
2018-02-08T16:22:18.367Z,33.07
2018-02-08T16:24:48.061Z,30.57
2018-02-08T16:27:16.360Z,31.00
2018-02-08T16:29:44.747Z,31.17
2018-02-08T16:32:13.102Z,29.63
2018-02-08T16:34:41.413Z,29.77
2018-02-08T16:37:09.687Z,31.67
2018-02-08T16:39:37.987Z,28.47
2018-02-08T16:42:06.275Z,32.10
2018-02-08T16:44:34.576Z,30.73
2018-02-08T16:47:02.892Z,28.50
2018-02-08T16:49:31.170Z,28.60
2018-02-08T16:51:59.504Z,26.70
2018-02-08T16:54:27.776Z,27.60
2018-02-08T16:56:56.107Z,29.20
2018-02-08T16:59:24.370Z,26.90
2018-02-08T17:01:52.740Z,26.63
2018-02-08T17:04:21.007Z,28.87
2018-02-08T17:06:49.365Z,26.90
2018-02-08T17:09:17.747Z,28.97
2018-02-08T17:11:46.113Z,27.40
2018-02-08T17:14:14.386Z,28.10
2018-02-08T17:16:42.703Z,27.90
2018-02-08T17:19:11.003Z,27.43
2018-02-08T17:21:39.269Z,29.30
2018-02-08T17:24:07.684Z,27.53
2018-02-08T17:26:35.948Z,27.57
2018-02-08T17:29:04.830Z,26.80
2018-02-08T17:31:33.123Z,27.47
2018-02-08T17:34:01.424Z,26.23
2018-02-08T17:36:29.700Z,26.37
2018-02-08T17:38:58.015Z,25.73
2018-02-08T17:41:26.319Z,27.70
2018-02-08T17:43:54.766Z,27.30
2018-02-08T17:46:23.019Z,24.93
2018-02-08T17:48:51.392Z,26.55
2018-02-08T17:51:19.662Z,26.30
2018-02-08T17:53:47.976Z,25.50
2018-02-08T17:56:16.267Z,26.33
2018-02-08T17:58:44.574Z,27.00
2018-02-08T18:01:12.843Z,26.30
2018-02-08T18:03:41.134Z,25.90
2018-02-08T18:06:09.422Z,25.17
2018-02-08T18:08:37.826Z,25.80
2018-02-08T18:11:06.168Z,25.70
2018-02-08T18:13:34.590Z,25.70
2018-02-08T18:16:02.877Z,27.67
2018-02-08T18:18:31.156Z,27.02
2018-02-08T18:20:59.453Z,26.65
2018-02-08T18:23:27.763Z,26.13
2018-02-08T18:25:56.934Z,27.77
2018-02-08T18:28:25.287Z,26.87
2018-02-08T18:30:53.520Z,28.50
2018-02-08T18:33:21.817Z,26.40
2018-02-08T18:35:50.084Z,28.07
2018-02-08T18:38:18.516Z,26.42
2018-02-08T18:40:46.783Z,25.30
2018-02-08T18:43:15.060Z,23.77
2018-02-08T18:45:43.355Z,24.53
2018-02-08T18:48:11.662Z,24.52
2018-02-08T18:50:39.937Z,23.43
2018-02-08T18:53:08.203Z,23.97
2018-02-08T18:55:36.531Z,23.63
2018-02-08T18:58:04.896Z,24.00
2018-02-08T19:00:33.095Z,23.70
2018-02-08T19:03:01.387Z,24.63
2018-02-08T19:05:29.713Z,24.27
2018-02-08T19:07:58.006Z,23.17
2018-02-08T19:10:26.299Z,23.57
2018-02-08T19:12:54.610Z,22.93
2018-02-08T19:15:22.991Z,22.47
2018-02-08T19:17:51.299Z,22.70
2018-02-08T19:20:19.579Z,24.70
2018-02-08T19:22:47.888Z,24.47
2018-02-08T19:25:16.208Z,23.00
2018-02-08T19:27:44.476Z,23.40
2018-02-08T19:30:12.779Z,23.57
2018-02-08T19:32:41.057Z,24.00
2018-02-08T19:35:09.370Z,23.42
2018-02-08T19:37:37.702Z,24.60
2018-02-08T19:40:06.853Z,23.80
2018-02-08T19:42:35.235Z,24.27
2018-02-08T19:45:03.507Z,32.27
2018-02-08T19:47:31.807Z,24.45
2018-02-08T19:50:00.107Z,24.70
2018-02-08T19:52:28.380Z,24.87
2018-02-08T19:54:56.746Z,25.83
2018-02-08T19:57:25.050Z,25.13
2018-02-08T19:59:53.367Z,25.73
2018-02-08T20:02:21.668Z,27.87
2018-02-08T20:04:49.955Z,28.23
2018-02-08T20:07:18.271Z,27.42
2018-02-08T20:09:46.578Z,27.50
2018-02-08T20:12:14.868Z,28.00
2018-02-08T20:14:58.813Z,27.50
2018-02-08T20:17:27.145Z,28.27
2018-02-08T20:19:55.390Z,28.53
2018-02-08T20:22:23.701Z,29.03
2018-02-08T20:24:51.976Z,26.90
2018-02-08T20:27:20.276Z,27.90
2018-02-08T20:29:48.557Z,28.80
2018-02-08T20:32:16.904Z,29.63
2018-02-08T20:34:45.205Z,30.60
2018-02-08T20:37:13.516Z,27.87
2018-02-08T20:39:41.792Z,25.50
2018-02-08T20:45:09.518Z,30.00
2018-02-08T20:47:37.818Z,28.63
2018-02-08T20:50:06.095Z,28.70
2018-02-08T20:52:34.451Z,28.30
2018-02-08T20:55:02.911Z,31.40
2018-02-08T20:57:31.176Z,30.70
2018-02-08T20:59:59.484Z,31.37
2018-02-08T21:02:27.787Z,31.87
2018-02-08T21:04:56.087Z,32.47
2018-02-08T21:07:24.438Z,31.00
2018-02-08T21:09:52.747Z,31.50
2018-02-08T21:12:21.037Z,31.48
2018-02-08T21:14:49.350Z,30.60
2018-02-08T21:17:17.682Z,31.60
2018-02-08T21:19:45.991Z,33.03
2018-02-08T21:22:14.305Z,31.67
2018-02-08T21:24:42.628Z,33.00
2018-02-08T21:27:10.901Z,32.33
2018-02-08T21:29:39.242Z,32.40
2018-02-08T21:32:07.577Z,32.47
2018-02-08T21:34:35.900Z,33.43
2018-02-08T21:37:05.075Z,32.83
2018-02-08T21:39:33.411Z,33.73
2018-02-08T21:42:01.684Z,30.83
2018-02-08T21:44:29.995Z,33.33
2018-02-08T21:46:58.271Z,32.63
2018-02-08T21:49:26.589Z,32.15
2018-02-08T21:51:54.935Z,32.40
2018-02-08T21:54:23.212Z,32.47
2018-02-08T21:56:51.519Z,33.30
2018-02-08T21:59:19.817Z,31.63
2018-02-08T22:01:48.086Z,32.80
2018-02-08T22:04:16.378Z,33.43
2018-02-08T22:06:44.709Z,33.87
2018-02-08T22:09:13.002Z,34.05
2018-02-08T22:11:41.303Z,32.63
2018-02-08T22:14:09.588Z,34.90
2018-02-08T22:16:37.884Z,34.30
2018-02-08T22:19:06.167Z,33.17
2018-02-08T22:21:34.484Z,34.20
2018-02-08T22:24:02.784Z,33.30
2018-02-08T22:26:31.080Z,34.00
2018-02-08T22:28:59.361Z,34.27
2018-02-08T22:31:27.685Z,33.83
2018-02-08T22:33:55.964Z,34.30
2018-02-08T22:36:24.248Z,33.70
2018-02-08T22:38:52.565Z,34.40
2018-02-08T22:41:20.876Z,34.50
2018-02-08T22:43:49.208Z,32.42
2018-02-08T22:46:17.525Z,35.53
2018-02-08T22:48:45.879Z,33.47
2018-02-08T22:51:14.247Z,33.77
2018-02-08T22:53:42.570Z,33.00
2018-02-08T22:56:10.831Z,32.10
2018-02-08T22:58:39.160Z,31.97
2018-02-08T23:01:07.487Z,31.13
2018-02-08T23:03:35.758Z,31.08
2018-02-08T23:06:04.960Z,30.33
2018-02-08T23:08:33.249Z,31.33
2018-02-08T23:11:01.559Z,32.00
2018-02-08T23:13:29.866Z,31.60
2018-02-08T23:15:58.170Z,31.50
2018-02-08T23:18:26.461Z,32.17
2018-02-08T23:20:54.761Z,33.20
2018-02-08T23:23:23.054Z,31.37
2018-02-08T23:25:51.331Z,32.97
2018-02-08T23:28:19.627Z,31.20
2018-02-08T23:30:47.903Z,32.77
2018-02-08T23:33:16.207Z,34.97
2018-02-08T23:35:44.474Z,33.60
2018-02-08T23:38:12.760Z,32.80
2018-02-08T23:40:41.081Z,31.08
2018-02-08T23:43:09.381Z,31.07
2018-02-08T23:45:37.679Z,31.93
2018-02-08T23:48:05.963Z,32.07
2018-02-08T23:50:34.272Z,30.67
2018-02-08T23:53:02.548Z,30.60
2018-02-08T23:55:30.878Z,32.65
2018-02-08T23:57:59.155Z,31.40
